createdAt,value
2022-11-18T00:01:55.037Z,11.80
2022-11-18T00:04:23.159Z,10.20
2022-11-18T00:06:51.305Z,11.00
2022-11-18T00:09:36.286Z,11.60
2022-11-18T00:12:22.336Z,11.10
2022-11-18T00:14:49.651Z,12.40
2022-11-18T00:17:17.778Z,20.00
2022-11-18T00:19:45.665Z,19.40
2022-11-18T00:22:14.812Z,16.30
2022-11-18T00:24:42.545Z,15.30
2022-11-18T00:27:10.456Z,12.30
2022-11-18T00:29:39.158Z,9.90
2022-11-18T00:32:07.337Z,10.70
2022-11-18T00:34:35.408Z,14.40
2022-11-18T00:37:04.210Z,13.30
2022-11-18T00:39:32.499Z,11.10
2022-11-18T00:42:19.097Z,12.10
2022-11-18T00:44:47.404Z,11.60
2022-11-18T00:47:15.361Z,12.00
2022-11-18T00:49:43.587Z,12.00
2022-11-18T00:52:11.607Z,15.10
2022-11-18T00:54:39.286Z,12.20
2022-11-18T00:57:06.819Z,12.10
2022-11-18T00:59:34.023Z,12.50
2022-11-18T01:02:01.372Z,11.20
2022-11-18T01:04:28.626Z,13.00
2022-11-18T01:06:56.236Z,13.00
2022-11-18T01:09:24.019Z,12.10
2022-11-18T01:12:10.039Z,12.40
2022-11-18T01:14:38.060Z,14.70
2022-11-18T01:17:06.331Z,14.60
2022-11-18T01:19:34.727Z,17.50
2022-11-18T01:22:03.399Z,18.00
2022-11-18T01:24:33.271Z,16.50
2022-11-18T01:27:01.591Z,22.30
2022-11-18T01:29:33.155Z,17.20
2022-11-18T01:34:48.482Z,16.40
2022-11-18T01:37:16.042Z,17.40
2022-11-18T01:39:43.983Z,16.10
2022-11-18T01:42:16.977Z,15.40
2022-11-18T01:45:05.278Z,13.80
2022-11-18T01:47:40.143Z,16.50
2022-11-18T01:50:09.509Z,18.60
2022-11-18T01:52:37.796Z,18.90
2022-11-18T01:55:17.292Z,18.70
2022-11-18T01:57:47.910Z,17.60
2022-11-18T02:00:16.277Z,14.90
2022-11-18T02:02:44.960Z,14.00
2022-11-18T02:05:13.362Z,17.20
2022-11-18T02:07:43.247Z,19.50
2022-11-18T02:10:20.281Z,20.00
2022-11-18T02:12:50.530Z,21.60
2022-11-18T02:15:30.044Z,16.50
2022-11-18T02:18:18.892Z,15.30
2022-11-18T02:20:51.245Z,13.70
2022-11-18T02:23:49.534Z,15.60
2022-11-18T02:26:32.267Z,14.30
2022-11-18T02:29:19.547Z,15.10
2022-11-18T02:32:05.098Z,16.20
2022-11-18T02:34:54.715Z,16.90
2022-11-18T02:37:55.066Z,13.30
2022-11-18T02:40:30.078Z,13.10
2022-11-18T02:43:24.626Z,12.00
2022-11-18T02:46:01.339Z,12.80
2022-11-18T02:51:00.399Z,10.80
2022-11-18T02:53:30.758Z,11.70
2022-11-18T02:56:02.697Z,16.40
2022-11-18T02:58:30.813Z,10.90
2022-11-18T03:01:01.255Z,9.80
2022-11-18T03:03:31.894Z,10.10
2022-11-18T03:06:07.575Z,11.50
2022-11-18T03:08:49.838Z,9.70
2022-11-18T03:11:24.872Z,10.30
2022-11-18T03:14:07.329Z,9.40
2022-11-18T03:16:54.086Z,8.90
2022-11-18T03:19:35.305Z,8.90
2022-11-18T03:22:12.149Z,7.80
2022-11-18T03:24:46.440Z,8.90
2022-11-18T03:27:31.189Z,8.20
2022-11-18T03:30:11.007Z,7.50
2022-11-18T03:32:45.700Z,9.10
2022-11-18T03:35:20.792Z,8.80
2022-11-18T03:37:52.210Z,8.80
2022-11-18T03:40:29.389Z,9.00
2022-11-18T03:43:02.457Z,9.10
2022-11-18T03:45:47.347Z,9.50
2022-11-18T03:48:17.492Z,9.50
2022-11-18T03:50:59.487Z,9.70
2022-11-18T03:53:30.677Z,12.00
2022-11-18T03:56:17.009Z,12.10
2022-11-18T03:59:04.894Z,13.10
2022-11-18T04:01:49.377Z,10.70
2022-11-18T04:04:17.452Z,10.10
2022-11-18T04:07:02.016Z,9.10
2022-11-18T04:09:38.757Z,9.00
2022-11-18T04:12:13.058Z,7.70
2022-11-18T04:14:44.222Z,7.10
2022-11-18T04:17:13.698Z,7.10
2022-11-18T04:19:42.437Z,7.00
2022-11-18T04:22:11.036Z,6.80
2022-11-18T04:24:39.476Z,7.50
2022-11-18T04:27:08.060Z,6.80
2022-11-18T04:29:35.841Z,6.80
2022-11-18T04:32:04.510Z,6.10
2022-11-18T04:34:32.721Z,6.20
2022-11-18T04:37:00.855Z,6.80
2022-11-18T04:39:29.108Z,7.60
2022-11-18T04:41:56.964Z,6.80
2022-11-18T04:44:30.233Z,6.90
2022-11-18T04:47:05.529Z,6.80
2022-11-18T04:49:34.778Z,6.60
2022-11-18T04:52:03.691Z,6.60
2022-11-18T04:54:31.303Z,6.30
2022-11-18T04:56:58.980Z,7.10
2022-11-18T04:59:29.546Z,6.30
2022-11-18T05:01:59.552Z,6.80
2022-11-18T05:04:39.531Z,6.70
2022-11-18T05:07:08.459Z,5.90
2022-11-18T05:09:36.079Z,6.70
2022-11-18T05:12:21.699Z,7.10
2022-11-18T05:14:50.770Z,7.20
2022-11-18T05:17:18.694Z,6.40
2022-11-18T05:19:45.848Z,6.80
2022-11-18T05:22:14.126Z,8.20
2022-11-18T05:24:41.024Z,6.40
2022-11-18T05:27:08.034Z,7.10
2022-11-18T05:29:35.023Z,8.10
2022-11-18T05:32:01.694Z,7.70
2022-11-18T05:34:31.036Z,7.20
2022-11-18T05:36:59.056Z,7.40
2022-11-18T05:39:27.098Z,8.20
2022-11-18T05:42:12.266Z,8.80
2022-11-18T05:44:40.307Z,7.40
2022-11-18T05:47:07.052Z,7.30
2022-11-18T05:49:34.027Z,8.40
2022-11-18T05:52:02.280Z,8.30
2022-11-18T05:54:29.442Z,7.50
2022-11-18T05:56:56.033Z,8.20
2022-11-18T05:59:22.666Z,8.00
2022-11-18T06:01:59.327Z,7.40
2022-11-18T06:06:58.192Z,10.10
2022-11-18T06:09:27.927Z,8.40
2022-11-18T06:12:06.220Z,10.40
2022-11-18T06:14:43.936Z,10.30
2022-11-18T06:17:16.648Z,9.70
2022-11-18T06:19:59.499Z,9.20
2022-11-18T06:22:27.622Z,9.80
2022-11-18T06:24:54.757Z,9.60
2022-11-18T06:27:21.845Z,9.80
2022-11-18T06:29:48.678Z,8.60
2022-11-18T06:32:19.405Z,9.50
2022-11-18T06:34:47.034Z,8.90
2022-11-18T06:37:22.068Z,10.10
2022-11-18T06:39:49.114Z,8.80
2022-11-18T06:42:36.628Z,10.80
2022-11-18T06:45:05.057Z,9.50
2022-11-18T06:47:32.995Z,11.00
2022-11-18T06:50:05.566Z,12.90
2022-11-18T06:52:33.765Z,12.70
2022-11-18T06:55:01.495Z,12.30
2022-11-18T06:57:29.468Z,11.60
2022-11-18T07:00:05.489Z,13.80
2022-11-18T07:02:39.729Z,13.60
2022-11-18T07:05:08.126Z,13.10
2022-11-18T07:07:40.509Z,13.40
2022-11-18T07:10:10.618Z,11.70
2022-11-18T07:12:39.092Z,11.90
2022-11-18T07:15:07.365Z,13.00
2022-11-18T07:17:35.872Z,14.20
2022-11-18T07:20:04.526Z,13.90
2022-11-18T07:22:33.044Z,15.60
2022-11-18T07:25:01.294Z,13.80
2022-11-18T07:27:31.360Z,12.90
2022-11-18T07:30:01.508Z,16.70
2022-11-18T07:32:35.592Z,13.60
2022-11-18T07:35:05.539Z,15.60
2022-11-18T07:37:34.574Z,15.10
2022-11-18T07:40:02.446Z,16.40
2022-11-18T07:42:42.379Z,15.10
2022-11-18T07:45:23.571Z,18.40
2022-11-18T07:47:51.483Z,15.00
2022-11-18T07:50:19.598Z,16.10
2022-11-18T07:52:47.569Z,15.90
2022-11-18T07:55:16.068Z,16.40
2022-11-18T07:57:44.029Z,18.40
2022-11-18T08:00:13.195Z,18.50
2022-11-18T08:02:43.743Z,17.40
2022-11-18T08:05:17.544Z,16.70
2022-11-18T08:08:22.738Z,18.40
2022-11-18T08:11:00.559Z,18.50
2022-11-18T08:13:28.854Z,17.10
2022-11-18T08:15:57.834Z,17.40
2022-11-18T08:18:28.067Z,15.40
2022-11-18T08:20:56.137Z,14.50
2022-11-18T08:23:30.167Z,14.10
2022-11-18T08:26:12.922Z,13.60
2022-11-18T08:28:42.329Z,14.50
2022-11-18T08:31:18.431Z,14.00
2022-11-18T08:33:46.659Z,15.10
2022-11-18T08:36:23.836Z,16.90
2022-11-18T08:41:28.960Z,17.50
2022-11-18T08:43:56.884Z,17.10
2022-11-18T08:46:25.504Z,15.00
2022-11-18T08:48:56.741Z,18.80
2022-11-18T08:51:25.730Z,19.00
2022-11-18T08:53:53.809Z,16.00
2022-11-18T08:56:23.543Z,15.40
2022-11-18T08:58:52.085Z,17.30
2022-11-18T09:01:20.186Z,15.30
2022-11-18T09:03:49.362Z,16.80
2022-11-18T09:06:19.684Z,15.10
2022-11-18T09:08:48.316Z,16.90
2022-11-18T09:11:23.424Z,16.90
2022-11-18T09:16:44.812Z,14.10
2022-11-18T09:19:40.077Z,15.20
2022-11-18T09:22:00.180Z,14.30
2022-11-18T09:24:28.680Z,13.60
2022-11-18T09:26:56.399Z,14.20
2022-11-18T09:29:25.862Z,15.10
2022-11-18T09:31:55.376Z,14.60
2022-11-18T09:34:23.905Z,16.30
2022-11-18T09:36:55.641Z,17.60
2022-11-18T09:39:25.122Z,16.50
2022-11-18T09:42:12.159Z,17.60
2022-11-18T09:45:00.278Z,17.40
2022-11-18T09:47:33.907Z,18.20
2022-11-18T09:50:26.694Z,14.40
2022-11-18T09:53:10.422Z,16.60
2022-11-18T09:55:41.164Z,17.20
2022-11-18T09:58:18.414Z,19.10
2022-11-18T10:00:46.433Z,16.70
2022-11-18T10:03:23.105Z,17.30
2022-11-18T10:06:12.322Z,17.00
2022-11-18T10:09:17.921Z,18.40
2022-11-18T10:12:08.217Z,17.80
2022-11-18T10:15:08.220Z,17.80
2022-11-18T10:21:17.061Z,20.10
2022-11-18T10:23:56.412Z,17.40
2022-11-18T10:26:33.510Z,17.40
2022-11-18T10:29:02.150Z,19.00
2022-11-18T10:31:29.883Z,22.90
2022-11-18T10:34:01.817Z,19.80
2022-11-18T10:37:34.485Z,21.50
2022-11-18T10:40:25.957Z,21.20
2022-11-18T10:42:54.098Z,22.40
2022-11-18T10:45:32.758Z,22.60
2022-11-18T10:48:15.780Z,26.00
2022-11-18T10:50:55.161Z,23.50
2022-11-18T10:53:34.002Z,22.30
2022-11-18T11:00:04.509Z,21.70
2022-11-18T11:03:20.842Z,24.20
2022-11-18T11:05:48.442Z,20.40
2022-11-18T11:08:36.283Z,19.70
2022-11-18T11:11:04.596Z,21.00
2022-11-18T11:13:37.720Z,21.30
2022-11-18T11:16:21.042Z,23.70
2022-11-18T11:18:56.768Z,22.20
2022-11-18T11:21:29.953Z,23.10
2022-11-18T11:24:01.818Z,23.50
2022-11-18T11:29:41.222Z,22.50
2022-11-18T11:32:58.356Z,27.30
2022-11-18T11:36:43.053Z,24.60
2022-11-18T11:39:37.649Z,26.90
2022-11-18T11:42:20.886Z,24.60
2022-11-18T11:45:18.244Z,23.50
2022-11-18T11:48:12.358Z,25.40
2022-11-18T11:51:03.448Z,23.80
2022-11-18T11:54:00.589Z,20.90
2022-11-18T11:56:38.936Z,21.60
2022-11-18T12:03:16.101Z,21.70
2022-11-18T12:05:44.084Z,21.60
2022-11-18T12:08:17.254Z,23.90
2022-11-18T12:11:35.616Z,23.70
2022-11-18T12:14:29.364Z,21.50
2022-11-18T12:17:11.603Z,23.20
2022-11-18T12:19:39.989Z,19.40
2022-11-18T12:22:08.789Z,19.50
2022-11-18T12:24:45.856Z,21.30
2022-11-18T12:27:37.102Z,24.20
2022-11-18T12:30:32.682Z,19.20
2022-11-18T12:33:01.584Z,20.20
2022-11-18T12:35:36.758Z,17.70
2022-11-18T12:38:04.930Z,18.10
2022-11-18T12:40:39.052Z,19.80
2022-11-18T12:43:44.107Z,17.10
2022-11-18T12:46:34.812Z,19.90
2022-11-18T12:49:37.977Z,17.70
2022-11-18T12:53:14.302Z,21.30
2022-11-18T12:55:42.573Z,18.60
2022-11-18T12:58:23.639Z,18.00
2022-11-18T13:01:14.403Z,16.60
2022-11-18T13:03:41.764Z,17.80
2022-11-18T13:06:33.210Z,17.00
2022-11-18T13:09:03.674Z,15.60
2022-11-18T13:11:46.584Z,15.50
2022-11-18T13:14:55.076Z,15.60
2022-11-18T13:17:54.000Z,14.70
2022-11-18T13:20:33.302Z,13.50
2022-11-18T13:23:28.867Z,13.20
2022-11-18T13:26:19.607Z,13.70
2022-11-18T13:29:13.365Z,15.30
2022-11-18T13:31:49.613Z,13.70
2022-11-18T13:34:23.589Z,14.80
2022-11-18T13:36:54.744Z,15.70
2022-11-18T13:39:25.911Z,18.40
2022-11-18T13:42:13.647Z,14.60
2022-11-18T13:45:02.403Z,19.10
2022-11-18T13:47:54.943Z,17.30
2022-11-18T13:50:37.564Z,17.40
2022-11-18T13:53:25.170Z,16.90
2022-11-18T13:56:01.450Z,41.30
2022-11-18T14:01:33.102Z,18.80
2022-11-18T14:04:06.946Z,18.60
2022-11-18T14:06:37.347Z,18.80
2022-11-18T14:09:11.201Z,24.90
2022-11-18T14:11:42.610Z,24.60
2022-11-18T14:14:13.743Z,36.20
2022-11-18T14:16:42.041Z,20.70
2022-11-18T14:19:31.069Z,22.90
2022-11-18T14:22:13.118Z,20.90
2022-11-18T14:24:42.096Z,18.20
2022-11-18T14:27:36.771Z,23.70
2022-11-18T14:30:23.186Z,20.00
2022-11-18T14:33:29.531Z,20.00
2022-11-18T14:36:03.172Z,20.60
2022-11-18T14:41:45.334Z,18.10
2022-11-18T14:44:14.020Z,20.70
2022-11-18T14:46:44.814Z,18.60
2022-11-18T14:49:19.175Z,19.00
2022-11-18T14:51:47.546Z,21.50
2022-11-18T14:54:23.785Z,17.80
2022-11-18T14:56:57.995Z,18.40
2022-11-18T14:59:26.110Z,18.00
2022-11-18T15:01:53.676Z,19.10
2022-11-18T15:04:22.871Z,19.50
2022-11-18T15:06:51.184Z,20.90
2022-11-18T15:09:18.740Z,26.60
2022-11-18T15:11:45.927Z,25.70
2022-11-18T15:14:13.108Z,18.10
2022-11-18T15:16:40.208Z,21.10
2022-11-18T15:19:14.725Z,19.50
2022-11-18T15:21:43.300Z,19.60
2022-11-18T15:24:10.459Z,26.80
2022-11-18T15:26:42.733Z,26.50
2022-11-18T15:31:59.796Z,23.50
2022-11-18T15:34:29.777Z,21.40
2022-11-18T15:36:58.294Z,19.10
2022-11-18T15:39:31.475Z,20.10
2022-11-18T15:41:59.032Z,20.40
2022-11-18T15:44:26.571Z,21.40
2022-11-18T15:46:55.283Z,21.80
2022-11-18T15:49:23.995Z,20.90
2022-11-18T15:51:54.219Z,20.50
2022-11-18T15:54:21.910Z,21.10
2022-11-18T15:56:49.470Z,18.80
2022-11-18T15:59:16.682Z,20.50
2022-11-18T16:01:46.480Z,18.10
2022-11-18T16:04:29.580Z,17.10
2022-11-18T16:07:04.839Z,17.30
2022-11-18T16:09:51.838Z,18.00
2022-11-18T16:12:38.064Z,20.30
2022-11-18T16:15:43.360Z,19.30
2022-11-18T16:18:10.986Z,18.90
2022-11-18T16:20:38.223Z,18.90
2022-11-18T16:23:05.191Z,21.40
2022-11-18T16:25:32.741Z,19.00
2022-11-18T16:28:20.762Z,17.80
2022-11-18T16:33:57.209Z,16.00
2022-11-18T16:36:26.776Z,21.40
2022-11-18T16:38:54.563Z,23.60
2022-11-18T16:44:44.732Z,20.00
2022-11-18T16:47:14.990Z,20.30
2022-11-18T16:49:44.427Z,19.60
2022-11-18T16:52:14.701Z,19.40
2022-11-18T16:54:46.005Z,20.50
2022-11-18T16:57:15.715Z,20.30
2022-11-18T16:59:45.435Z,19.70
2022-11-18T17:02:13.870Z,19.60
2022-11-18T17:04:44.556Z,21.80
2022-11-18T17:07:13.134Z,22.60
2022-11-18T17:09:40.806Z,21.50
2022-11-18T17:12:08.230Z,23.20
2022-11-18T17:14:37.691Z,23.10
2022-11-18T17:17:05.957Z,22.00
2022-11-18T17:19:34.551Z,26.80
2022-11-18T17:22:01.911Z,26.60
2022-11-18T17:24:29.550Z,26.90
2022-11-18T17:27:01.959Z,23.90
2022-11-18T17:29:32.500Z,25.40
2022-11-18T17:32:02.697Z,22.90
2022-11-18T17:34:30.030Z,31.90
2022-11-18T17:37:06.239Z,35.30
2022-11-18T17:39:34.500Z,30.40
2022-11-18T17:42:14.284Z,34.30
2022-11-18T17:44:41.806Z,36.40
2022-11-18T17:47:09.262Z,52.40
2022-11-18T17:49:37.475Z,35.60
2022-11-18T17:52:05.431Z,36.60
2022-11-18T17:54:35.218Z,36.60
2022-11-18T17:57:03.605Z,36.10
2022-11-18T17:59:31.690Z,30.00
2022-11-18T18:02:00.163Z,34.20
2022-11-18T18:04:28.743Z,30.00
2022-11-18T18:06:56.365Z,25.70
2022-11-18T18:09:30.070Z,26.60
2022-11-18T18:12:03.989Z,24.50
2022-11-18T18:14:31.683Z,24.20
2022-11-18T18:17:00.292Z,25.80
2022-11-18T18:19:28.186Z,23.60
2022-11-18T18:22:10.017Z,25.40
2022-11-18T18:24:38.626Z,26.80
2022-11-18T18:27:05.529Z,25.50
2022-11-18T18:29:32.485Z,26.90
2022-11-18T18:32:00.611Z,22.80
2022-11-18T18:34:32.245Z,22.90
2022-11-18T18:36:59.916Z,22.40
2022-11-18T18:39:27.857Z,25.50
2022-11-18T18:41:55.234Z,20.20
2022-11-18T18:44:22.559Z,23.30
2022-11-18T18:46:52.995Z,21.90
2022-11-18T18:49:23.944Z,25.20
2022-11-18T18:51:56.348Z,23.10
2022-11-18T18:54:23.593Z,24.40
2022-11-18T18:56:50.205Z,21.90
2022-11-18T18:59:16.848Z,23.40
2022-11-18T19:01:43.890Z,21.10
2022-11-18T19:04:13.647Z,22.30
2022-11-18T19:06:56.722Z,27.80
2022-11-18T19:09:26.333Z,27.70
2022-11-18T19:14:56.384Z,22.70
2022-11-18T19:17:23.603Z,25.90
2022-11-18T19:20:09.366Z,28.80
2022-11-18T19:22:37.895Z,24.50
2022-11-18T19:25:07.686Z,22.70
2022-11-18T19:27:40.001Z,24.50
2022-11-18T19:30:13.370Z,25.90
2022-11-18T19:32:42.528Z,23.50
2022-11-18T19:35:10.561Z,23.50
2022-11-18T19:37:38.526Z,19.90
2022-11-18T19:40:09.216Z,22.70
2022-11-18T19:42:39.069Z,24.40
2022-11-18T19:45:07.724Z,24.10
2022-11-18T19:47:35.596Z,25.30
2022-11-18T19:50:04.231Z,24.00
2022-11-18T19:52:34.581Z,26.60
2022-11-18T19:55:13.037Z,22.00
2022-11-18T19:57:42.485Z,23.00
2022-11-18T20:00:10.633Z,22.70
2022-11-18T20:02:39.849Z,27.10
2022-11-18T20:05:32.665Z,24.80
2022-11-18T20:08:03.022Z,23.70
2022-11-18T20:10:35.760Z,25.40
2022-11-18T20:13:05.914Z,26.80
2022-11-18T20:15:33.303Z,26.30
2022-11-18T20:18:06.669Z,28.20
2022-11-18T20:20:39.000Z,30.00
2022-11-18T20:23:11.759Z,27.10
2022-11-18T20:25:45.138Z,27.80
2022-11-18T20:28:23.576Z,27.10
2022-11-18T20:31:00.495Z,27.70
2022-11-18T20:33:31.557Z,27.00
2022-11-18T20:36:08.241Z,28.40
2022-11-18T20:39:04.865Z,29.00
2022-11-18T20:41:32.880Z,37.40
2022-11-18T20:44:16.932Z,36.90
2022-11-18T20:46:52.845Z,33.20
2022-11-18T20:49:21.466Z,28.80
2022-11-18T20:51:53.839Z,29.00
2022-11-18T20:54:21.621Z,28.30
2022-11-18T20:56:49.121Z,28.20
2022-11-18T20:59:17.461Z,29.10
2022-11-18T21:01:45.780Z,26.10
2022-11-18T21:04:13.881Z,26.20
2022-11-18T21:06:41.828Z,28.20
2022-11-18T21:09:09.568Z,28.40
2022-11-18T21:11:37.809Z,28.00
2022-11-18T21:14:25.301Z,28.70
2022-11-18T21:16:55.758Z,29.20
2022-11-18T21:19:33.812Z,26.10
2022-11-18T21:22:15.072Z,28.90
2022-11-18T21:24:44.652Z,28.30
2022-11-18T21:27:13.035Z,28.00
2022-11-18T21:29:42.128Z,27.80
2022-11-18T21:32:13.892Z,27.00
2022-11-18T21:34:54.356Z,26.50
2022-11-18T21:42:16.385Z,27.70
2022-11-18T21:57:02.442Z,26.70
2022-11-18T21:59:32.765Z,28.40
2022-11-18T22:04:58.649Z,31.80
2022-11-18T22:07:33.973Z,29.90
2022-11-18T22:10:02.605Z,35.20
2022-11-18T22:12:29.973Z,31.60
2022-11-18T22:15:06.468Z,31.60
2022-11-18T22:17:34.030Z,30.50
2022-11-18T22:20:02.042Z,34.90
2022-11-18T22:22:29.935Z,33.70
2022-11-18T22:24:58.031Z,30.30
2022-11-18T22:27:28.291Z,30.50
2022-11-18T22:29:55.448Z,31.70
2022-11-18T22:32:22.594Z,30.00
2022-11-18T22:34:51.965Z,28.90
2022-11-18T22:37:25.052Z,31.10
2022-11-18T22:39:54.521Z,33.80
2022-11-18T22:42:42.362Z,32.70
2022-11-18T22:45:18.762Z,33.20
2022-11-18T22:47:48.736Z,32.00
2022-11-18T22:57:20.131Z,26.70
2022-11-18T22:59:47.422Z,26.80
2022-11-18T23:02:15.616Z,27.10
2022-11-18T23:04:43.778Z,27.60
2022-11-18T23:07:10.561Z,27.40
2022-11-18T23:09:37.839Z,26.80
2022-11-18T23:12:24.080Z,27.20
2022-11-18T23:17:21.038Z,30.20
2022-11-18T23:19:50.248Z,27.00
2022-11-18T23:22:17.429Z,27.10
2022-11-18T23:24:45.004Z,25.80
2022-11-18T23:31:53.591Z,25.00
2022-11-18T23:34:23.023Z,25.60
2022-11-18T23:36:56.784Z,25.10
2022-11-18T23:39:24.647Z,25.50
2022-11-18T23:41:52.904Z,24.70
2022-11-18T23:44:42.454Z,25.30
2022-11-18T23:47:12.274Z,24.10
2022-11-18T23:49:43.494Z,27.50
2022-11-18T23:52:12.353Z,38.00
2022-11-18T23:54:40.700Z,38.20
2022-11-18T23:57:08.590Z,33.20
2022-11-18T23:59:37.813Z,29.50
